createdAt,value
2018-06-13T00:00:08.716Z,13.30
2018-06-13T00:02:37.008Z,13.30
2018-06-13T00:05:05.276Z,13.20
2018-06-13T00:07:33.555Z,13.20
2018-06-13T00:10:01.811Z,13.20
2018-06-13T00:12:30.093Z,13.20
2018-06-13T00:14:58.366Z,13.20
2018-06-13T00:17:26.600Z,13.20
2018-06-13T00:19:54.865Z,13.20
2018-06-13T00:22:23.157Z,13.20
2018-06-13T00:24:51.388Z,13.20
2018-06-13T00:27:19.644Z,13.20
2018-06-13T00:29:47.968Z,13.20
2018-06-13T00:32:16.144Z,13.20
2018-06-13T00:34:44.372Z,13.20
2018-06-13T00:37:12.652Z,13.20
2018-06-13T00:39:40.885Z,13.20
2018-06-13T00:42:09.115Z,13.20
2018-06-13T00:44:37.354Z,13.20
2018-06-13T00:47:05.657Z,13.20
2018-06-13T00:49:33.862Z,13.20
2018-06-13T00:52:02.205Z,13.20
2018-06-13T00:54:30.453Z,13.20
2018-06-13T00:56:58.672Z,13.20
2018-06-13T00:59:26.908Z,13.10
2018-06-13T01:01:55.149Z,13.10
2018-06-13T01:04:23.421Z,13.10
2018-06-13T01:06:51.713Z,13.10
2018-06-13T01:09:19.959Z,13.10
2018-06-13T01:11:48.186Z,13.00
2018-06-13T01:14:16.420Z,13.10
2018-06-13T01:16:44.712Z,13.00
2018-06-13T01:19:12.988Z,13.10
2018-06-13T01:21:41.265Z,13.00
2018-06-13T01:24:09.501Z,13.00
2018-06-13T01:26:37.771Z,13.00
2018-06-13T01:29:06.057Z,13.00
2018-06-13T01:31:34.300Z,13.00
2018-06-13T01:34:02.552Z,13.00
2018-06-13T01:36:30.781Z,13.00
2018-06-13T01:38:59.064Z,13.00
2018-06-13T01:41:27.275Z,13.00
2018-06-13T01:43:55.509Z,13.00
2018-06-13T01:46:23.725Z,13.00
2018-06-13T01:48:51.980Z,13.00
2018-06-13T01:51:20.228Z,13.00
2018-06-13T01:53:48.465Z,13.00
2018-06-13T01:56:16.942Z,13.00
2018-06-13T01:58:45.193Z,13.00
2018-06-13T02:01:13.444Z,12.90
2018-06-13T02:03:41.876Z,12.90
2018-06-13T02:06:10.200Z,12.90
2018-06-13T02:08:38.516Z,13.00
2018-06-13T02:11:06.877Z,12.90
2018-06-13T02:13:35.190Z,13.00
2018-06-13T02:16:03.492Z,13.00
2018-06-13T02:20:59.858Z,13.00
2018-06-13T02:23:28.236Z,13.00
2018-06-13T02:25:56.579Z,13.00
2018-06-13T02:28:24.889Z,13.00
2018-06-13T02:30:53.285Z,12.90
2018-06-13T02:33:21.633Z,12.90
2018-06-13T02:38:18.101Z,13.00
2018-06-13T02:40:46.413Z,13.00
2018-06-13T02:43:14.708Z,13.00
2018-06-13T02:45:43.034Z,13.00
2018-06-13T02:48:11.419Z,13.00
2018-06-13T02:50:39.761Z,13.00
2018-06-13T02:55:36.103Z,13.00
2018-06-13T02:58:04.523Z,13.10
2018-06-13T03:00:32.840Z,13.00
2018-06-13T03:03:01.175Z,13.10
2018-06-13T03:05:29.457Z,13.10
2018-06-13T03:07:57.789Z,13.10
2018-06-13T03:10:26.173Z,13.10
2018-06-13T03:12:54.523Z,13.10
2018-06-13T03:15:22.804Z,13.10
2018-06-13T03:17:51.144Z,13.10
2018-06-13T03:20:19.471Z,13.10
2018-06-13T03:22:47.764Z,13.10
2018-06-13T03:25:16.054Z,13.10
2018-06-13T03:30:12.488Z,13.10
2018-06-13T03:32:40.768Z,13.10
2018-06-13T03:35:09.083Z,13.20
2018-06-13T03:37:37.383Z,13.10
2018-06-13T03:40:05.743Z,13.10
2018-06-13T03:42:34.008Z,13.20
2018-06-13T03:45:02.336Z,13.20
2018-06-13T03:47:30.627Z,13.20
2018-06-13T03:49:59.040Z,13.20
2018-06-13T03:52:27.333Z,13.20
2018-06-13T03:54:55.640Z,13.20
2018-06-13T03:57:23.952Z,13.20
2018-06-13T03:59:52.292Z,13.30
2018-06-13T04:02:20.596Z,13.30
2018-06-13T04:04:48.880Z,13.30
2018-06-13T04:07:17.317Z,13.30
2018-06-13T04:09:45.611Z,13.30
2018-06-13T04:12:13.962Z,13.30
2018-06-13T04:14:42.280Z,13.30
2018-06-13T04:17:10.577Z,13.30
2018-06-13T04:19:38.908Z,13.30
2018-06-13T04:22:07.222Z,13.30
2018-06-13T04:27:04.532Z,13.40
2018-06-13T04:29:32.866Z,13.40
2018-06-13T04:32:01.197Z,13.40
2018-06-13T04:34:29.512Z,13.40
2018-06-13T04:36:57.816Z,13.50
2018-06-13T04:39:26.109Z,13.50
2018-06-13T04:41:54.494Z,13.50
2018-06-13T04:44:22.764Z,13.50
2018-06-13T04:46:51.122Z,13.50
2018-06-13T04:49:19.381Z,13.50
2018-06-13T04:51:47.697Z,13.60
2018-06-13T04:54:15.976Z,13.60
2018-06-13T04:56:44.292Z,13.60
2018-06-13T04:59:12.567Z,13.60
2018-06-13T05:01:40.860Z,13.70
2018-06-13T05:04:09.223Z,13.70
2018-06-13T05:06:37.558Z,13.70
2018-06-13T05:09:07.478Z,13.70
2018-06-13T05:11:35.757Z,13.70
2018-06-13T05:14:04.113Z,13.80
2018-06-13T05:16:32.398Z,13.80
2018-06-13T05:19:00.715Z,13.90
2018-06-13T05:21:29.019Z,13.90
2018-06-13T05:23:57.371Z,13.90
2018-06-13T05:26:25.689Z,14.00
2018-06-13T05:28:54.068Z,14.00
2018-06-13T05:31:22.372Z,14.10
2018-06-13T05:33:50.668Z,14.10
2018-06-13T05:36:18.988Z,14.10
2018-06-13T05:38:47.318Z,14.10
2018-06-13T05:41:15.607Z,14.10
2018-06-13T05:43:43.911Z,14.10
2018-06-13T05:46:12.219Z,14.20
2018-06-13T05:48:40.528Z,14.20
2018-06-13T05:51:08.865Z,14.20
2018-06-13T05:53:37.162Z,14.20
2018-06-13T05:56:05.476Z,14.20
2018-06-13T05:58:33.763Z,14.20
2018-06-13T06:01:02.068Z,14.30
2018-06-13T06:03:30.380Z,14.30
2018-06-13T06:05:58.663Z,14.30
2018-06-13T06:08:26.969Z,14.40
2018-06-13T06:10:55.249Z,14.40
2018-06-13T06:15:51.600Z,14.40
2018-06-13T06:18:19.996Z,14.50
2018-06-13T06:20:48.312Z,14.50
2018-06-13T06:23:16.642Z,14.60
2018-06-13T06:25:44.943Z,14.60
2018-06-13T06:28:13.348Z,14.70
2018-06-13T06:30:41.676Z,14.80
2018-06-13T06:33:10.029Z,14.80
2018-06-13T06:35:38.353Z,14.90
2018-06-13T06:38:06.780Z,14.90
2018-06-13T06:40:35.116Z,15.00
2018-06-13T06:43:03.432Z,14.90
2018-06-13T06:45:31.753Z,15.00
2018-06-13T06:48:00.067Z,15.00
2018-06-13T06:50:28.509Z,15.00
2018-06-13T06:52:56.856Z,15.10
2018-06-13T06:55:25.305Z,15.10
2018-06-13T06:57:53.539Z,15.20
2018-06-13T07:00:22.375Z,15.40
2018-06-13T07:02:50.684Z,15.60
2018-06-13T07:05:19.004Z,15.80
2018-06-13T07:07:47.621Z,15.90
2018-06-13T07:10:16.020Z,16.00
2018-06-13T07:12:44.371Z,16.20
2018-06-13T07:15:12.724Z,16.40
2018-06-13T07:17:41.056Z,16.60
2018-06-13T07:20:09.366Z,16.60
2018-06-13T07:22:37.712Z,16.60
2018-06-13T07:25:06.112Z,16.60
2018-06-13T07:27:34.451Z,16.70
2018-06-13T07:30:03.294Z,16.70
2018-06-13T07:32:31.610Z,16.70
2018-06-13T07:34:59.953Z,16.80
2018-06-13T07:37:28.355Z,16.80
2018-06-13T07:39:56.672Z,16.80
2018-06-13T07:42:25.025Z,16.90
2018-06-13T07:44:53.354Z,16.90
2018-06-13T07:47:21.697Z,17.00
2018-06-13T07:49:49.988Z,17.00
2018-06-13T07:52:18.459Z,17.10
2018-06-13T07:54:46.810Z,17.00
2018-06-13T07:57:15.144Z,17.00
2018-06-13T07:59:43.439Z,16.90
2018-06-13T08:02:11.803Z,16.80
2018-06-13T08:04:40.115Z,16.80
2018-06-13T08:07:08.546Z,16.90
2018-06-13T08:09:36.840Z,17.00
2018-06-13T08:12:05.336Z,17.10
2018-06-13T08:14:33.720Z,17.30
2018-06-13T08:17:02.119Z,17.40
2018-06-13T08:19:30.712Z,17.40
2018-06-13T08:24:27.209Z,17.50
2018-06-13T08:26:55.588Z,17.60
2018-06-13T08:29:24.085Z,17.80
2018-06-13T08:31:52.465Z,18.00
2018-06-13T08:34:20.879Z,18.00
2018-06-13T08:36:49.224Z,18.00
2018-06-13T08:39:17.795Z,18.00
2018-06-13T08:41:46.164Z,18.00
2018-06-13T08:44:14.640Z,18.00
2018-06-13T08:46:43.538Z,18.10
2018-06-13T08:49:11.870Z,18.30
2018-06-13T08:51:40.172Z,18.50
2018-06-13T08:54:08.516Z,18.80
2018-06-13T08:56:36.788Z,19.10
2018-06-13T08:59:05.195Z,19.70
2018-06-13T09:01:33.571Z,20.30
2018-06-13T09:04:01.986Z,20.50
2018-06-13T09:06:30.400Z,20.60
2018-06-13T09:08:58.841Z,20.40
2018-06-13T09:11:27.133Z,20.20
2018-06-13T09:13:55.446Z,19.90
2018-06-13T09:16:23.807Z,19.70
2018-06-13T09:18:52.109Z,19.70
2018-06-13T09:21:20.443Z,20.00
2018-06-13T09:23:48.764Z,20.50
2018-06-13T09:26:17.147Z,21.10
2018-06-13T09:28:45.492Z,21.80
2018-06-13T09:31:13.945Z,22.30
2018-06-13T09:33:42.240Z,22.40
2018-06-13T09:36:10.536Z,22.40
2018-06-13T09:38:38.882Z,22.50
2018-06-13T09:41:07.325Z,22.60
2018-06-13T09:43:35.689Z,22.60
2018-06-13T09:46:11.860Z,22.70
2018-06-13T09:48:32.424Z,22.60
2018-06-13T09:51:00.756Z,22.30
2018-06-13T09:53:29.435Z,21.90
2018-06-13T09:58:25.892Z,21.50
2018-06-13T10:00:59.571Z,21.40
2018-06-13T10:03:27.872Z,21.20
2018-06-13T10:05:56.229Z,21.00
2018-06-13T10:08:24.562Z,20.90
2018-06-13T10:10:54.752Z,20.80
2018-06-13T10:13:23.104Z,20.90
2018-06-13T10:15:51.540Z,21.00
2018-06-13T10:18:20.868Z,21.00
2018-06-13T10:20:49.204Z,20.80
2018-06-13T10:23:17.667Z,20.70
2018-06-13T10:25:45.990Z,20.50
2018-06-13T10:28:14.821Z,20.40
2018-06-13T10:30:44.340Z,20.30
2018-06-13T10:33:12.700Z,20.30
2018-06-13T10:35:40.996Z,20.40
2018-06-13T10:38:09.913Z,20.50
2018-06-13T10:40:38.300Z,20.80
2018-06-13T10:43:06.697Z,20.90
2018-06-13T10:45:35.025Z,21.00
2018-06-13T10:48:03.351Z,20.90
2018-06-13T10:50:31.705Z,20.80
2018-06-13T10:53:00.016Z,20.70
2018-06-13T10:55:28.377Z,20.60
2018-06-13T11:00:24.664Z,20.40
2018-06-13T11:02:53.028Z,20.40
2018-06-13T11:05:21.390Z,20.20
2018-06-13T11:07:49.732Z,20.10
2018-06-13T11:10:18.095Z,20.00
2018-06-13T11:12:46.387Z,19.90
2018-06-13T11:15:14.735Z,19.80
2018-06-13T11:17:43.044Z,19.70
2018-06-13T11:20:11.367Z,19.60
2018-06-13T11:22:40.096Z,19.60
2018-06-13T11:25:08.400Z,19.60
2018-06-13T11:27:36.732Z,19.80
2018-06-13T11:30:05.670Z,20.00
2018-06-13T11:32:34.048Z,20.20
2018-06-13T11:35:06.640Z,20.60
2018-06-13T11:37:36.721Z,21.00
2018-06-13T11:40:05.200Z,21.30
2018-06-13T11:42:33.503Z,21.60
2018-06-13T11:45:01.829Z,22.00
2018-06-13T11:47:30.126Z,22.30
2018-06-13T11:49:58.500Z,22.40
2018-06-13T11:52:26.865Z,22.30
2018-06-13T11:54:55.172Z,22.10
2018-06-13T11:57:23.521Z,21.80
2018-06-13T11:59:51.849Z,21.50
2018-06-13T12:02:20.152Z,21.30
2018-06-13T12:04:48.492Z,21.00
2018-06-13T12:07:16.949Z,20.70
2018-06-13T12:09:45.248Z,20.40
2018-06-13T12:12:13.603Z,20.20
2018-06-13T12:14:41.893Z,20.00
2018-06-13T12:17:11.616Z,19.80
2018-06-13T12:19:39.925Z,19.80
2018-06-13T12:22:08.275Z,19.70
2018-06-13T12:24:36.580Z,19.70
2018-06-13T12:27:05.036Z,19.60
2018-06-13T12:29:33.303Z,19.60
2018-06-13T12:32:01.670Z,19.70
2018-06-13T12:34:29.972Z,19.70
2018-06-13T12:36:59.348Z,19.70
2018-06-13T12:39:27.684Z,19.80
2018-06-13T12:41:56.006Z,19.90
2018-06-13T12:44:24.304Z,19.90
2018-06-13T12:46:52.633Z,20.00
2018-06-13T12:49:20.940Z,20.10
2018-06-13T12:51:49.255Z,20.20
2018-06-13T12:54:17.532Z,20.30
2018-06-13T12:56:45.812Z,20.30
2018-06-13T12:59:14.128Z,20.10
2018-06-13T13:01:42.440Z,20.00
2018-06-13T13:04:10.740Z,19.70
2018-06-13T13:06:39.076Z,19.40
2018-06-13T13:09:09.575Z,19.20
2018-06-13T13:11:37.925Z,19.00
2018-06-13T13:14:06.240Z,18.80
2018-06-13T13:16:34.551Z,18.60
2018-06-13T13:19:02.856Z,18.40
2018-06-13T13:21:31.213Z,18.30
2018-06-13T13:23:59.551Z,18.30
2018-06-13T13:26:27.932Z,18.30
2018-06-13T13:28:56.290Z,18.30
2018-06-13T13:31:24.631Z,18.30
2018-06-13T13:33:53.805Z,18.20
2018-06-13T13:36:22.160Z,18.30
2018-06-13T13:38:50.494Z,18.20
2018-06-13T13:41:18.776Z,18.30
2018-06-13T13:43:47.092Z,18.30
2018-06-13T13:46:15.413Z,18.30
2018-06-13T13:48:43.771Z,18.30
2018-06-13T13:51:12.325Z,18.30
2018-06-13T13:53:40.652Z,18.30
2018-06-13T13:56:09.213Z,18.40
2018-06-13T13:58:37.907Z,18.40
2018-06-13T14:01:06.376Z,18.50
2018-06-13T14:03:34.764Z,18.50
2018-06-13T14:06:03.083Z,18.50
2018-06-13T14:08:31.416Z,18.70
2018-06-13T14:10:59.828Z,18.80
2018-06-13T14:13:28.159Z,18.80
2018-06-13T14:15:56.439Z,18.90
2018-06-13T14:18:24.764Z,18.90
2018-06-13T14:20:53.169Z,19.00
2018-06-13T14:23:21.711Z,19.00
2018-06-13T14:25:50.042Z,19.00
2018-06-13T14:28:18.368Z,19.00
2018-06-13T14:30:46.781Z,18.90
2018-06-13T14:33:15.097Z,19.00
2018-06-13T14:35:43.472Z,19.10
2018-06-13T14:38:11.816Z,19.20
2018-06-13T14:40:40.190Z,19.30
2018-06-13T14:43:08.524Z,19.30
2018-06-13T14:45:36.851Z,19.40
2018-06-13T14:48:05.180Z,19.40
2018-06-13T14:50:33.610Z,19.40
2018-06-13T14:55:31.749Z,19.30
2018-06-13T14:58:00.056Z,19.20
2018-06-13T15:00:28.376Z,19.20
2018-06-13T15:02:56.718Z,19.10
2018-06-13T15:05:25.084Z,19.10
2018-06-13T15:10:21.498Z,19.00
2018-06-13T15:12:49.900Z,19.00
2018-06-13T15:15:18.379Z,19.00
2018-06-13T15:17:46.792Z,19.10
2018-06-13T15:20:15.129Z,19.10
2018-06-13T15:22:43.443Z,19.20
2018-06-13T15:25:11.818Z,19.20
2018-06-13T15:27:40.397Z,19.20
2018-06-13T15:30:08.778Z,19.10
2018-06-13T15:32:37.108Z,19.00
2018-06-13T15:35:05.547Z,18.90
2018-06-13T15:37:33.930Z,18.90
2018-06-13T15:40:02.214Z,18.80
2018-06-13T15:42:30.621Z,18.80
2018-06-13T15:44:58.972Z,18.80
2018-06-13T15:47:27.298Z,18.80
2018-06-13T15:49:55.688Z,18.80
2018-06-13T15:52:24.008Z,18.70
2018-06-13T15:54:52.333Z,18.60
2018-06-13T15:57:20.638Z,18.40
2018-06-13T15:59:49.066Z,18.30
2018-06-13T16:02:17.388Z,18.20
2018-06-13T16:04:45.815Z,18.10
2018-06-13T16:07:14.158Z,18.00
2018-06-13T16:09:42.547Z,18.00
2018-06-13T16:12:10.896Z,18.00
2018-06-13T16:14:39.236Z,18.00
2018-06-13T16:17:07.580Z,17.90
2018-06-13T16:19:35.872Z,17.90
2018-06-13T16:22:04.295Z,17.90
2018-06-13T16:24:33.037Z,17.80
2018-06-13T16:27:01.388Z,17.80
2018-06-13T16:29:29.715Z,17.70
2018-06-13T16:31:58.085Z,17.60
2018-06-13T16:34:26.572Z,17.60
2018-06-13T16:36:54.903Z,17.50
2018-06-13T16:39:23.195Z,17.50
2018-06-13T16:41:51.734Z,17.40
2018-06-13T16:44:20.004Z,17.40
2018-06-13T16:46:48.477Z,17.40
2018-06-13T16:49:16.810Z,17.30
2018-06-13T16:51:53.284Z,17.30
2018-06-13T16:54:32.705Z,17.30
2018-06-13T16:57:01.008Z,17.30
2018-06-13T16:59:29.388Z,17.20
2018-06-13T17:01:57.849Z,17.20
2018-06-13T17:04:26.203Z,17.20
2018-06-13T17:06:54.607Z,17.10
2018-06-13T17:09:22.980Z,17.10
2018-06-13T17:11:51.272Z,17.10
2018-06-13T17:14:19.580Z,17.10
2018-06-13T17:16:47.923Z,17.20
2018-06-13T17:19:16.200Z,17.20
2018-06-13T17:21:44.516Z,17.20
2018-06-13T17:24:12.796Z,17.10
2018-06-13T17:26:41.722Z,17.10
2018-06-13T17:29:10.060Z,17.00
2018-06-13T17:31:38.376Z,17.00
2018-06-13T17:34:06.761Z,17.00
2018-06-13T17:36:35.053Z,16.90
2018-06-13T17:39:03.521Z,16.90
2018-06-13T17:41:31.822Z,16.80
2018-06-13T17:44:00.123Z,16.80
2018-06-13T17:46:28.507Z,16.70
2018-06-13T17:48:56.813Z,16.70
2018-06-13T17:51:25.102Z,16.60
2018-06-13T17:53:53.470Z,16.60
2018-06-13T17:56:21.796Z,16.50
2018-06-13T17:58:50.124Z,16.50
2018-06-13T18:01:18.541Z,16.50
2018-06-13T18:03:46.878Z,16.40
2018-06-13T18:06:15.204Z,16.40
2018-06-13T18:08:43.552Z,16.40
2018-06-13T18:13:40.015Z,16.30
2018-06-13T18:16:08.340Z,16.30
2018-06-13T18:18:36.719Z,16.30
2018-06-13T18:21:05.046Z,16.30
2018-06-13T18:23:33.438Z,16.30
2018-06-13T18:26:01.780Z,16.20
2018-06-13T18:28:30.093Z,16.20
2018-06-13T18:30:58.532Z,16.20
2018-06-13T18:33:26.824Z,16.20
2018-06-13T18:35:55.188Z,16.20
2018-06-13T18:38:23.521Z,16.20
2018-06-13T18:40:51.903Z,16.20
2018-06-13T18:43:20.207Z,16.10
2018-06-13T18:45:48.629Z,16.10
2018-06-13T18:48:16.956Z,16.10
2018-06-13T18:50:45.259Z,16.00
2018-06-13T18:53:13.592Z,16.00
2018-06-13T18:55:42.025Z,16.00
2018-06-13T18:58:10.316Z,16.00
2018-06-13T19:00:38.669Z,15.90
2018-06-13T19:03:07.047Z,15.90
2018-06-13T19:08:03.531Z,15.90
2018-06-13T19:10:31.837Z,15.80
2018-06-13T19:13:00.144Z,15.90
2018-06-13T19:15:28.432Z,15.80
2018-06-13T19:17:56.755Z,15.80
2018-06-13T19:20:25.075Z,15.70
2018-06-13T19:22:53.500Z,15.70
2018-06-13T19:25:22.646Z,15.70
2018-06-13T19:27:51.020Z,15.70
2018-06-13T19:30:19.396Z,15.60
2018-06-13T19:32:47.757Z,15.60
2018-06-13T19:35:16.172Z,15.50
2018-06-13T19:37:44.536Z,15.50
2018-06-13T19:40:12.893Z,15.50
2018-06-13T19:42:41.212Z,15.40
2018-06-13T19:45:09.532Z,15.40
2018-06-13T19:47:43.133Z,15.40
2018-06-13T19:50:11.432Z,15.30
2018-06-13T19:52:45.233Z,15.30
2018-06-13T19:55:18.816Z,15.20
2018-06-13T19:57:47.171Z,15.20
2018-06-13T20:00:15.506Z,15.20
2018-06-13T20:02:49.092Z,15.20
2018-06-13T20:05:22.852Z,15.20
2018-06-13T20:07:51.216Z,15.10
2018-06-13T20:10:19.549Z,15.10
2018-06-13T20:12:53.124Z,15.10
2018-06-13T20:15:26.849Z,15.10
2018-06-13T20:18:00.609Z,15.00
2018-06-13T20:20:28.944Z,15.00
2018-06-13T20:22:57.304Z,15.00
2018-06-13T20:25:31.023Z,15.00
2018-06-13T20:28:04.521Z,15.00
2018-06-13T20:30:38.241Z,15.00
2018-06-13T20:33:06.591Z,15.00
2018-06-13T20:35:35.034Z,15.00
2018-06-13T20:38:03.347Z,14.90
2018-06-13T20:40:31.659Z,14.90
2018-06-13T20:45:28.060Z,14.90
2018-06-13T20:47:56.386Z,14.90
2018-06-13T20:50:24.800Z,14.80
2018-06-13T20:52:53.124Z,14.80
2018-06-13T20:55:21.485Z,14.80
2018-06-13T20:57:49.935Z,14.80
2018-06-13T21:00:18.284Z,14.70
2018-06-13T21:02:46.619Z,14.70
2018-06-13T21:05:14.964Z,14.60
2018-06-13T21:07:43.344Z,14.50
2018-06-13T21:10:11.664Z,14.50
2018-06-13T21:12:39.972Z,14.50
2018-06-13T21:15:08.345Z,14.50
2018-06-13T21:17:36.756Z,14.50
2018-06-13T21:20:05.072Z,14.50
2018-06-13T21:22:33.408Z,14.50
2018-06-13T21:25:01.729Z,14.50
2018-06-13T21:27:30.035Z,14.50
2018-06-13T21:29:58.359Z,14.40
2018-06-13T21:32:26.741Z,14.50
2018-06-13T21:34:55.228Z,14.40
2018-06-13T21:37:24.175Z,14.50
2018-06-13T21:39:52.740Z,14.50
2018-06-13T21:44:49.313Z,14.40
2018-06-13T21:47:17.891Z,14.40
2018-06-13T21:49:46.200Z,14.40
2018-06-13T21:52:14.554Z,14.40
2018-06-13T21:54:42.968Z,14.40
2018-06-13T21:57:11.287Z,14.40
2018-06-13T21:59:39.608Z,14.40
2018-06-13T22:02:08.000Z,14.40
2018-06-13T22:07:04.444Z,14.30
2018-06-13T22:09:32.752Z,14.40
2018-06-13T22:12:01.093Z,14.40
2018-06-13T22:14:29.411Z,14.30
2018-06-13T22:16:57.736Z,14.30
2018-06-13T22:19:26.028Z,14.20
2018-06-13T22:21:54.354Z,14.20
2018-06-13T22:24:22.759Z,14.20
2018-06-13T22:26:51.079Z,14.10
2018-06-13T22:29:19.415Z,14.10
2018-06-13T22:31:47.753Z,14.10
2018-06-13T22:34:16.088Z,14.10
2018-06-13T22:36:44.423Z,14.10
2018-06-13T22:39:13.259Z,14.10
2018-06-13T22:41:42.233Z,14.10
2018-06-13T22:44:10.533Z,14.10
2018-06-13T22:46:38.859Z,14.10
2018-06-13T22:49:07.244Z,14.10
2018-06-13T22:51:35.751Z,14.10
2018-06-13T22:54:04.077Z,14.00
2018-06-13T22:56:32.432Z,14.00
2018-06-13T22:59:00.817Z,13.90
2018-06-13T23:01:29.193Z,13.80
2018-06-13T23:03:57.745Z,13.70
2018-06-13T23:06:26.060Z,13.60
2018-06-13T23:08:54.424Z,13.60
2018-06-13T23:11:22.736Z,13.60
2018-06-13T23:13:51.060Z,13.50
2018-06-13T23:16:19.382Z,13.50
2018-06-13T23:18:47.660Z,13.50
2018-06-13T23:21:16.005Z,13.50
2018-06-13T23:35:11.893Z,13.60
2018-06-13T23:37:40.236Z,13.60
2018-06-13T23:42:36.624Z,13.60
2018-06-13T23:45:05.044Z,13.60
2018-06-13T23:50:01.390Z,13.60
2018-06-13T23:52:29.744Z,13.60
2018-06-13T23:54:58.055Z,13.60
2018-06-13T23:57:26.372Z,13.70
2018-06-13T23:59:54.676Z,13.60
